Time;durP1;ratioP1;P1;durP2;ratioP2;P2;SDS_P1;SDS_P2;PMS_P1;PMS_P2;Temp;Humidity;BMP_temperature;BMP_pressure;BME280_temperature;BME280_humidity;BME280_pressure;Samples;Min_cycle;Max_cycle;Signal;HPM_P1;HPM_P2
2021/08/30 00:01:34;;;;;;;45.70;27.73;;;15.00;99.90;;;;;;5013429;28;20053;-75
2021/08/30 00:04:02;;;;;;;46.10;29.83;;;15.00;99.90;;;;;;5021292;28;20068;-75
2021/08/30 00:06:29;;;;;;;39.28;27.30;;;15.00;99.90;;;;;;4986306;28;20050;-74
2021/08/30 00:08:55;;;;;;;41.33;26.15;;;15.00;99.90;;;;;;4986153;28;20687;-77
2021/08/30 00:11:25;;;;;;;40.63;26.33;;;15.00;99.90;;;;;;5002330;28;20108;-73
2021/08/30 00:13:52;;;;;;;50.05;29.08;;;15.00;99.90;;;;;;5003241;28;20057;-73
2021/08/30 00:16:19;;;;;;;41.53;28.08;;;15.00;99.90;;;;;;4986099;28;20584;-74
2021/08/30 00:18:47;;;;;;;44.17;28.00;;;15.00;99.90;;;;;;5007038;28;20128;-76
2021/08/30 00:21:16;;;;;;;38.22;27.23;;;15.00;99.90;;;;;;4999139;28;20045;-75
2021/08/30 00:23:43;;;;;;;42.25;27.95;;;15.00;99.90;;;;;;4993252;28;20049;-75
2021/08/30 00:26:10;;;;;;;43.72;27.55;;;14.90;99.90;;;;;;5002474;28;20042;-75
2021/08/30 00:28:40;;;;;;;42.08;27.73;;;14.90;99.90;;;;;;4993312;28;20046;-75
2021/08/30 00:31:07;;;;;;;39.17;26.23;;;14.90;99.90;;;;;;5030124;28;20552;-75
2021/08/30 00:33:33;;;;;;;40.92;27.83;;;14.90;99.90;;;;;;5022582;28;20037;-74
2021/08/30 00:36:00;;;;;;;42.08;27.20;;;14.90;99.90;;;;;;4981408;28;20728;-74
2021/08/30 00:38:27;;;;;;;39.75;26.77;;;14.90;99.90;;;;;;4983448;28;20050;-74
2021/08/30 00:40:54;;;;;;;40.55;26.02;;;14.90;99.90;;;;;;4998638;28;20507;-75
2021/08/30 00:43:20;;;;;;;43.50;28.63;;;14.90;99.90;;;;;;5018731;28;20042;-75
2021/08/30 00:45:47;;;;;;;44.60;28.83;;;14.90;99.90;;;;;;5000863;28;20054;-75
2021/08/30 00:48:14;;;;;;;45.30;29.73;;;14.90;99.90;;;;;;4988214;28;20092;-75
2021/08/30 00:50:41;;;;;;;43.75;29.33;;;14.90;99.90;;;;;;4999598;28;20577;-75
2021/08/30 00:53:07;;;;;;;44.03;28.45;;;14.90;99.90;;;;;;5003444;28;20068;-75
2021/08/30 00:55:35;;;;;;;42.90;28.02;;;14.90;99.90;;;;;;5002410;28;20046;-74
2021/08/30 00:58:03;;;;;;;39.88;27.58;;;14.90;99.90;;;;;;4985398;28;20502;-74
2021/08/30 01:00:30;;;;;;;41.35;29.90;;;14.90;99.90;;;;;;5009081;28;20175;-75
2021/08/30 01:02:57;;;;;;;45.60;29.02;;;14.90;99.90;;;;;;5002328;28;20529;-75
2021/08/30 01:05:24;;;;;;;48.95;30.00;;;14.90;99.90;;;;;;5003308;28;20133;-75
2021/08/30 01:08:03;;;;;;;42.85;25.60;;;14.80;99.90;;;;;;5017747;28;20080;-75
2021/08/30 01:10:44;;;;;;;44.28;29.73;;;14.80;99.90;;;;;;5002604;28;20498;-75
2021/08/30 01:13:36;;;;;;;41.92;29.40;;;14.80;99.90;;;;;;5015119;28;20409;-75
2021/08/30 01:16:05;;;;;;;49.95;30.90;;;14.80;99.90;;;;;;5021244;28;20057;-75
2021/08/30 01:18:34;;;;;;;46.60;30.42;;;14.80;99.90;;;;;;5005585;28;20363;-75
2021/08/30 01:21:01;;;;;;;47.90;31.00;;;14.80;99.90;;;;;;5000073;28;20691;-75
2021/08/30 01:23:28;;;;;;;47.50;30.95;;;14.80;99.90;;;;;;5009306;28;20112;-74
2021/08/30 01:25:59;;;;;;;46.95;29.02;;;14.90;99.90;;;;;;5001666;28;20042;-75
2021/08/30 01:28:34;;;;;;;48.75;31.85;;;14.80;99.90;;;;;;5007421;28;20069;-75
2021/08/30 01:31:04;;;;;;;;;;;14.70;99.90;;;;;;4969574;28;20045;-75
2021/08/30 01:33:32;;;;;;;47.80;28.95;;;14.80;99.90;;;;;;5012144;28;19921;-75
2021/08/30 01:35:59;;;;;;;52.10;30.77;;;14.80;99.90;;;;;;5000899;28;20191;-75
2021/08/30 01:38:26;;;;;;;44.33;30.48;;;14.70;99.90;;;;;;5001455;28;20060;-75
2021/08/30 01:40:52;;;;;;;48.50;31.02;;;14.70;99.90;;;;;;5000700;28;20053;-75
2021/08/30 01:43:19;;;;;;;50.45;32.83;;;14.60;99.90;;;;;;4984310;28;20093;-75
2021/08/30 01:45:46;;;;;;;48.63;33.20;;;14.70;99.90;;;;;;4983353;28;20069;-75
2021/08/30 01:48:13;;;;;;;47.22;31.30;;;14.70;99.90;;;;;;4989273;28;20066;-75
2021/08/30 01:50:41;;;;;;;50.00;30.58;;;14.70;99.90;;;;;;5033403;28;20050;-74
2021/08/30 01:53:10;;;;;;;51.70;29.13;;;14.70;99.90;;;;;;5002729;28;20080;-75
2021/08/30 01:55:47;;;;;;;49.72;29.77;;;14.70;99.90;;;;;;5002338;28;20045;-74
2021/08/30 02:00:49;;;;;;;50.38;29.58;;;14.70;99.90;;;;;;5009891;28;20050;-75
2021/08/30 02:03:29;;;;;;;45.80;29.65;;;14.70;99.90;;;;;;5007567;28;20046;-75
2021/08/30 02:05:57;;;;;;;47.92;31.55;;;14.70;99.90;;;;;;4985182;28;20046;-75
2021/08/30 02:08:25;;;;;;;41.92;28.35;;;14.70;99.90;;;;;;4984481;28;20054;-75
2021/08/30 02:10:54;;;;;;;43.85;30.23;;;14.70;99.90;;;;;;4969808;28;20073;-74
2021/08/30 02:13:25;;;;;;;46.65;32.70;;;14.70;99.90;;;;;;5021499;28;20049;-74
2021/08/30 02:15:53;;;;;;;51.65;30.63;;;14.70;99.90;;;;;;5022124;28;20061;-75
2021/08/30 02:18:35;;;;;;;48.40;29.58;;;14.70;99.90;;;;;;5022715;28;20058;-75
2021/08/30 02:21:26;;;;;;;43.67;29.63;;;14.60;99.90;;;;;;4981781;28;20046;-74
2021/08/30 02:24:22;;;;;;;47.45;31.23;;;14.70;99.90;;;;;;4983192;28;20526;-75
2021/08/30 02:27:01;;;;;;;42.80;31.55;;;14.80;99.90;;;;;;4984089;28;20054;-74
2021/08/30 02:29:39;;;;;;;43.78;29.52;;;14.80;99.90;;;;;;5026700;28;20103;-75
2021/08/30 02:32:07;;;;;;;48.65;30.50;;;14.70;99.90;;;;;;5019473;28;20123;-75
2021/08/30 02:34:37;;;;;;;55.05;32.80;;;14.70;99.90;;;;;;5006910;28;20107;-75
2021/08/30 02:37:05;;;;;;;48.33;30.92;;;14.70;99.90;;;;;;4987324;28;20640;-75
2021/08/30 02:39:33;;;;;;;45.25;30.88;;;14.70;99.90;;;;;;5008460;28;20406;-75
2021/08/30 02:42:03;;;;;;;46.78;32.63;;;14.80;99.90;;;;;;5017892;28;20034;-74
2021/08/30 02:44:30;;;;;;;47.90;33.03;;;14.70;99.90;;;;;;5004940;28;20053;-74
2021/08/30 02:46:58;;;;;;;50.67;31.40;;;14.80;99.90;;;;;;5004161;28;20180;-74
2021/08/30 02:49:25;;;;;;;45.15;32.08;;;14.80;99.90;;;;;;5004431;28;20054;-75
2021/08/30 02:51:54;;;;;;;53.50;34.15;;;14.80;99.90;;;;;;5004018;28;20060;-75
2021/08/30 02:54:22;;;;;;;52.75;33.47;;;14.80;99.90;;;;;;5005350;28;20070;-74
2021/08/30 02:56:50;;;;;;;52.47;32.47;;;14.80;99.90;;;;;;5004160;28;20097;-74
2021/08/30 02:59:18;;;;;;;47.80;32.55;;;14.80;99.90;;;;;;5012830;28;20139;-75
2021/08/30 03:01:45;;;;;;;50.47;33.08;;;14.80;99.90;;;;;;5016478;28;20049;-75
2021/08/30 03:04:13;;;;;;;46.88;32.53;;;14.80;99.90;;;;;;5011735;28;20054;-74
2021/08/30 03:06:40;;;;;;;53.80;34.50;;;14.80;99.90;;;;;;5008186;28;20111;-75
2021/08/30 03:09:07;;;;;;;49.63;32.17;;;14.80;99.90;;;;;;5008400;28;20054;-75
2021/08/30 03:11:37;;;;;;;46.63;30.92;;;14.70;99.90;;;;;;5008361;28;20136;-75
2021/08/30 03:14:07;;;;;;;48.72;32.13;;;14.80;99.90;;;;;;4991224;28;20516;-76
2021/08/30 03:16:36;;;;;;;47.15;32.60;;;14.80;99.90;;;;;;5005234;28;20049;-75
2021/08/30 03:19:03;;;;;;;50.65;33.63;;;14.80;99.90;;;;;;5006588;28;20101;-75
2021/08/30 03:21:31;;;;;;;46.65;29.85;;;14.70;99.90;;;;;;5005390;28;20576;-75
2021/08/30 03:24:00;;;;;;;51.60;31.08;;;14.70;99.90;;;;;;4988857;28;20115;-75
2021/08/30 03:26:28;;;;;;;46.80;31.63;;;14.70;99.90;;;;;;5005114;28;20057;-75
2021/08/30 03:28:56;;;;;;;44.92;31.42;;;14.70;99.90;;;;;;5015124;28;20103;-75
2021/08/30 03:31:26;;;;;;;47.78;31.67;;;14.70;99.90;;;;;;4997772;28;20115;-74
2021/08/30 03:33:55;;;;;;;46.92;32.47;;;14.70;99.90;;;;;;4988190;28;20100;-75
2021/08/30 03:36:23;;;;;;;57.30;31.50;;;14.70;99.90;;;;;;4989348;28;20041;-75
2021/08/30 03:38:50;;;;;;;51.83;32.28;;;14.80;99.90;;;;;;5012414;28;20204;-74
2021/08/30 03:41:19;;;;;;;45.30;30.70;;;14.80;99.90;;;;;;5011072;28;20504;-76
2021/08/30 03:43:46;;;;;;;50.75;31.13;;;14.70;99.90;;;;;;5012599;28;20089;-75
2021/08/30 03:46:13;;;;;;;51.85;33.10;;;14.70;99.90;;;;;;5012727;28;20046;-74
2021/08/30 03:48:42;;;;;;;52.40;33.65;;;14.70;99.90;;;;;;4996152;28;20053;-72
2021/08/30 03:51:10;;;;;;;57.35;34.17;;;14.80;99.90;;;;;;5014258;28;20050;-73
2021/08/30 03:53:40;;;;;;;53.28;33.05;;;14.70;99.90;;;;;;5012866;28;20081;-76
2021/08/30 03:56:07;;;;;;;47.15;31.35;;;14.70;99.90;;;;;;5005720;28;20415;-73
2021/08/30 03:58:36;;;;;;;51.53;33.53;;;14.70;99.90;;;;;;5010993;28;20595;-74
2021/08/30 04:01:06;;;;;;;49.40;32.47;;;14.70;99.90;;;;;;5018283;28;20049;-74
2021/08/30 04:03:39;;;;;;;49.00;31.88;;;14.70;99.90;;;;;;5019485;28;20049;-74
2021/08/30 04:06:11;;;;;;;53.75;32.30;;;14.70;99.90;;;;;;5004197;28;20065;-74
2021/08/30 04:08:38;;;;;;;50.13;31.65;;;14.70;99.90;;;;;;5002863;28;20131;-73
2021/08/30 04:11:09;;;;;;;54.50;31.58;;;14.70;99.90;;;;;;5004237;28;20053;-74
2021/08/30 04:13:39;;;;;;;56.15;34.08;;;14.80;99.90;;;;;;5007204;28;20140;-74
2021/08/30 04:16:06;;;;;;;53.25;31.98;;;14.80;99.90;;;;;;4986380;28;20177;-74
2021/08/30 04:18:33;;;;;;;56.47;35.17;;;14.80;99.90;;;;;;4986596;28;20061;-74
2021/08/30 04:21:00;;;;;;;53.28;31.88;;;14.80;99.90;;;;;;5004528;28;20108;-74
2021/08/30 04:23:27;;;;;;;51.13;32.67;;;14.80;99.90;;;;;;5017712;28;20431;-74
2021/08/30 04:25:54;;;;;;;52.50;33.53;;;14.80;99.90;;;;;;5019448;28;20046;-74
2021/08/30 04:28:22;;;;;;;48.90;32.75;;;14.80;99.90;;;;;;4991337;28;20056;-74
2021/08/30 04:30:49;;;;;;;49.20;31.55;;;14.80;99.90;;;;;;5010194;28;20417;-74
2021/08/30 04:33:16;;;;;;;50.88;33.38;;;14.80;99.90;;;;;;4983422;28;20050;-74
2021/08/30 04:35:43;;;;;;;51.80;34.28;;;14.80;99.90;;;;;;5002295;28;20058;-74
2021/08/30 04:38:11;;;;;;;49.40;32.15;;;14.70;99.90;;;;;;4986837;28;20041;-74
2021/08/30 04:40:38;;;;;;;50.55;32.60;;;14.80;99.90;;;;;;5005258;28;20503;-73
2021/08/30 04:43:07;;;;;;;52.05;31.35;;;14.80;99.90;;;;;;5009000;28;20104;-75
2021/08/30 04:45:35;;;;;;;55.10;33.90;;;14.70;99.90;;;;;;5003026;28;20061;-75
2021/08/30 04:48:02;;;;;;;48.45;31.23;;;14.80;99.90;;;;;;4985217;28;20132;-75
2021/08/30 04:50:29;;;;;;;53.95;33.90;;;14.70;99.90;;;;;;5002220;28;20501;-75
2021/08/30 04:52:56;;;;;;;47.90;31.40;;;14.70;99.90;;;;;;5003290;28;20061;-75
2021/08/30 04:55:23;;;;;;;45.72;31.58;;;14.70;99.90;;;;;;5001610;28;20116;-75
2021/08/30 04:57:49;;;;;;;43.53;28.67;;;14.60;99.90;;;;;;4986575;28;20042;-75
2021/08/30 05:00:16;;;;;;;43.20;29.13;;;14.60;99.90;;;;;;5010909;28;20061;-74
2021/08/30 05:02:43;;;;;;;44.38;29.00;;;14.60;99.90;;;;;;5002688;28;20045;-75
2021/08/30 05:05:10;;;;;;;42.42;30.23;;;14.60;99.90;;;;;;5001522;28;20072;-75
2021/08/30 05:07:37;;;;;;;43.28;29.45;;;14.70;99.90;;;;;;4989400;28;20365;-73
2021/08/30 05:10:05;;;;;;;45.17;31.20;;;14.70;99.90;;;;;;5003028;28;20042;-75
2021/08/30 05:12:33;;;;;;;51.10;31.67;;;14.70;99.90;;;;;;5003483;28;20050;-74
2021/08/30 05:14:59;;;;;;;47.00;30.02;;;14.80;99.90;;;;;;5003523;28;20123;-73
2021/08/30 05:17:26;;;;;;;48.58;30.55;;;14.80;99.90;;;;;;5001773;28;20502;-75
2021/08/30 05:19:53;;;;;;;46.40;30.55;;;14.80;99.90;;;;;;5003377;28;20057;-74
2021/08/30 05:22:20;;;;;;;49.28;30.15;;;14.80;99.90;;;;;;5018200;28;20054;-75
2021/08/30 05:24:46;;;;;;;43.45;29.95;;;14.80;99.90;;;;;;5004555;28;20507;-75
2021/08/30 05:27:13;;;;;;;42.58;31.05;;;14.80;99.90;;;;;;4985545;28;20062;-75
2021/08/30 05:29:40;;;;;;;45.55;30.10;;;14.80;99.90;;;;;;4994054;28;20483;-74
2021/08/30 05:32:07;;;;;;;46.63;31.45;;;14.90;99.90;;;;;;5002311;28;20549;-74
2021/08/30 05:34:34;;;;;;;47.42;31.67;;;14.90;99.90;;;;;;5004311;28;20073;-75
2021/08/30 05:37:01;;;;;;;49.20;33.05;;;14.90;99.90;;;;;;4984787;28;20057;-74
2021/08/30 05:39:28;;;;;;;46.05;29.55;;;14.80;99.90;;;;;;5004714;28;20104;-74
2021/08/30 05:41:55;;;;;;;45.45;30.20;;;14.90;99.90;;;;;;5000938;28;20473;-75
2021/08/30 05:44:21;;;;;;;45.00;28.77;;;14.90;99.90;;;;;;5018087;28;20053;-75
2021/08/30 05:46:50;;;;;;;43.17;28.92;;;14.90;99.90;;;;;;5001824;28;20432;-74
2021/08/30 05:49:16;;;;;;;52.70;30.30;;;14.90;99.90;;;;;;5001960;28;20049;-73
2021/08/30 05:51:44;;;;;;;46.28;29.65;;;14.90;99.90;;;;;;5002281;28;20053;-74
2021/08/30 05:54:10;;;;;;;46.15;29.83;;;14.90;99.90;;;;;;5000229;28;20057;-74
2021/08/30 05:56:37;;;;;;;43.75;28.13;;;15.00;99.90;;;;;;5000494;28;20057;-75
2021/08/30 05:59:04;;;;;;;47.95;30.63;;;15.00;99.90;;;;;;5008135;28;20132;-75
2021/08/30 06:01:30;;;;;;;35.58;24.10;;;14.90;99.90;;;;;;5013996;28;20321;-74
2021/08/30 06:03:58;;;;;;;38.55;25.05;;;14.90;99.90;;;;;;5004627;28;20054;-75
2021/08/30 06:06:25;;;;;;;35.85;25.30;;;14.90;99.90;;;;;;5003792;28;20287;-74
2021/08/30 06:08:51;;;;;;;43.60;25.83;;;15.00;99.90;;;;;;4989624;28;20046;-74
2021/08/30 06:11:18;;;;;;;40.47;27.35;;;15.00;99.90;;;;;;4990456;28;20096;-74
2021/08/30 06:13:45;;;;;;;41.72;29.65;;;15.00;99.90;;;;;;4972136;28;20111;-75
2021/08/30 06:16:12;;;;;;;42.05;29.08;;;15.00;99.90;;;;;;5005092;28;20054;-75
2021/08/30 06:18:39;;;;;;;49.00;29.67;;;15.00;99.90;;;;;;5004839;28;20104;-75
2021/08/30 06:21:06;;;;;;;48.72;30.48;;;15.00;99.90;;;;;;5004493;28;20438;-75
2021/08/30 06:23:32;;;;;;;46.97;30.90;;;15.00;99.90;;;;;;5008120;28;20073;-74
2021/08/30 06:26:00;;;;;;;45.03;30.65;;;15.10;99.90;;;;;;4987900;28;20418;-74
2021/08/30 06:28:27;;;;;;;41.88;28.60;;;15.10;99.90;;;;;;5010521;28;20046;-74
2021/08/30 06:30:55;;;;;;;45.88;30.98;;;15.10;99.90;;;;;;4996860;28;20084;-74
2021/08/30 06:33:22;;;;;;;45.58;30.15;;;15.10;99.90;;;;;;5004349;28;20569;-75
2021/08/30 06:35:48;;;;;;;47.80;30.95;;;15.10;99.90;;;;;;5003157;28;20072;-74
2021/08/30 06:38:15;;;;;;;49.63;30.98;;;15.10;99.90;;;;;;5004017;28;20061;-75
2021/08/30 06:40:42;;;;;;;47.00;32.15;;;15.20;99.90;;;;;;4987987;28;20289;-74
2021/08/30 06:43:09;;;;;;;43.70;30.17;;;15.20;99.90;;;;;;5006715;28;20108;-74
2021/08/30 06:45:36;;;;;;;43.55;30.40;;;15.20;99.90;;;;;;5001250;28;20050;-74
2021/08/30 06:48:03;;;;;;;43.17;29.95;;;15.20;99.90;;;;;;4985710;28;20074;-74
2021/08/30 06:50:30;;;;;;;49.90;28.90;;;15.30;99.90;;;;;;4999707;28;20061;-74
2021/08/30 06:52:57;;;;;;;37.63;26.27;;;15.40;99.90;;;;;;5010836;28;20080;-75
2021/08/30 06:55:24;;;;;;;37.35;26.45;;;15.40;99.90;;;;;;5002977;28;20062;-74
2021/08/30 06:57:51;;;;;;;37.97;26.65;;;15.40;99.90;;;;;;5005313;28;20282;-74
2021/08/30 07:00:18;;;;;;;44.22;28.50;;;15.50;99.90;;;;;;5010877;28;20045;-74
2021/08/30 07:02:45;;;;;;;37.13;27.13;;;15.50;99.90;;;;;;5002900;28;20041;-74
2021/08/30 07:05:12;;;;;;;37.78;23.67;;;15.60;99.90;;;;;;5005023;28;20058;-74
2021/08/30 07:07:39;;;;;;;33.92;23.85;;;15.60;99.90;;;;;;5005747;28;20120;-75
2021/08/30 07:10:06;;;;;;;33.05;22.75;;;15.50;99.90;;;;;;5003180;28;20054;-75
2021/08/30 07:12:33;;;;;;;39.40;26.20;;;15.50;99.90;;;;;;4970918;28;20319;-75
2021/08/30 07:15:00;;;;;;;35.05;25.75;;;15.50;99.90;;;;;;5003579;28;20356;-74
2021/08/30 07:17:27;;;;;;;37.75;24.52;;;15.60;99.90;;;;;;5003237;28;20046;-74
2021/08/30 07:19:53;;;;;;;35.70;24.90;;;15.60;99.90;;;;;;5005678;28;20164;-74
2021/08/30 07:22:20;;;;;;;33.40;24.88;;;15.50;99.90;;;;;;5019004;28;20049;-75
2021/08/30 07:24:47;;;;;;;34.90;25.00;;;15.60;99.90;;;;;;4973907;28;20343;-74
2021/08/30 07:27:14;;;;;;;37.20;26.10;;;15.60;99.90;;;;;;4990017;28;20100;-74
2021/08/30 07:29:40;;;;;;;38.78;25.45;;;15.70;99.90;;;;;;5009202;28;20057;-75
2021/08/30 07:32:08;;;;;;;37.97;26.00;;;15.70;99.90;;;;;;5006012;28;20076;-74
2021/08/30 07:34:35;;;;;;;33.80;24.23;;;15.70;99.90;;;;;;5003222;28;20390;-74
2021/08/30 07:37:03;;;;;;;32.58;23.90;;;15.80;99.90;;;;;;4999287;28;20060;-74
2021/08/30 07:39:30;;;;;;;29.85;22.25;;;15.70;99.90;;;;;;5039228;28;20049;-74
2021/08/30 07:41:57;;;;;;;34.45;23.67;;;15.60;99.90;;;;;;5005684;28;20568;-74
2021/08/30 07:44:24;;;;;;;30.40;23.85;;;15.60;99.90;;;;;;5004454;28;20057;-74
2021/08/30 07:46:51;;;;;;;33.08;23.60;;;15.70;99.90;;;;;;4985344;28;20251;-75
2021/08/30 07:49:18;;;;;;;35.15;24.50;;;15.60;99.90;;;;;;5001668;28;20309;-74
2021/08/30 07:51:45;;;;;;;34.47;23.85;;;15.60;99.90;;;;;;5002158;28;20068;-74
2021/08/30 07:54:12;;;;;;;32.88;23.35;;;15.60;99.90;;;;;;5004433;28;20050;-74
2021/08/30 07:56:40;;;;;;;35.63;22.98;;;15.60;99.90;;;;;;5003015;28;20054;-74
2021/08/30 07:59:10;;;;;;;35.05;24.13;;;15.50;99.90;;;;;;5010742;28;20108;-74
2021/08/30 08:01:37;;;;;;;37.90;24.70;;;15.60;99.90;;;;;;5016826;28;20057;-74
2021/08/30 08:04:05;;;;;;;37.70;23.40;;;15.70;99.90;;;;;;5004096;28;20049;-74
2021/08/30 08:06:32;;;;;;;35.60;24.58;;;15.70;99.90;;;;;;5002080;28;20521;-74
2021/08/30 08:08:59;;;;;;;39.40;24.05;;;15.60;99.90;;;;;;5002652;28;20052;-74
2021/08/30 08:11:25;;;;;;;32.03;25.25;;;15.70;99.90;;;;;;5001268;28;20276;-74
2021/08/30 08:13:52;;;;;;;29.88;21.70;;;15.70;99.90;;;;;;5001734;28;20553;-75
2021/08/30 08:16:19;;;;;;;33.13;24.40;;;15.70;99.90;;;;;;4982904;28;20070;-74
2021/08/30 08:18:46;;;;;;;28.20;21.60;;;15.80;99.90;;;;;;4993459;28;20657;-74
2021/08/30 08:21:13;;;;;;;29.02;21.83;;;15.70;99.90;;;;;;4993922;28;20046;-74
2021/08/30 08:23:39;;;;;;;32.53;22.63;;;15.70;99.90;;;;;;5016650;28;20061;-74
2021/08/30 08:26:06;;;;;;;28.17;22.17;;;15.70;99.90;;;;;;5014444;28;20045;-74
2021/08/30 08:28:34;;;;;;;36.03;24.88;;;15.70;99.90;;;;;;5001095;28;20033;-74
2021/08/30 08:31:00;;;;;;;31.17;22.77;;;15.70;99.90;;;;;;4996219;28;20184;-74
2021/08/30 08:33:27;;;;;;;27.95;20.00;;;15.70;99.90;;;;;;5030886;28;20453;-74
2021/08/30 08:35:54;;;;;;;29.23;20.15;;;15.70;99.90;;;;;;5001133;28;20073;-74
2021/08/30 08:38:23;;;;;;;29.98;21.55;;;15.60;99.90;;;;;;4985646;28;20049;-74
2021/08/30 08:40:51;;;;;;;27.77;21.40;;;15.60;99.90;;;;;;5003469;28;20046;-74
2021/08/30 08:43:20;;;;;;;25.08;20.85;;;15.60;99.90;;;;;;5003388;28;20434;-74
2021/08/30 08:45:49;;;;;;;28.83;21.17;;;15.60;99.90;;;;;;5003697;28;20069;-74
2021/08/30 08:48:19;;;;;;;27.05;21.20;;;15.60;99.90;;;;;;5001259;28;20112;-74
2021/08/30 08:50:47;;;;;;;28.98;22.20;;;15.60;99.90;;;;;;5009301;28;20135;-74
2021/08/30 08:53:14;;;;;;;33.95;22.95;;;15.60;99.90;;;;;;5004947;28;20112;-74
2021/08/30 08:55:41;;;;;;;32.13;24.35;;;15.50;99.90;;;;;;5001952;28;20058;-74
2021/08/30 08:58:17;;;;;;;28.58;22.10;;;15.60;99.90;;;;;;5004893;28;20352;-74
2021/08/30 09:00:57;;;;;;;29.77;23.30;;;15.60;99.90;;;;;;4993256;28;20053;-74
2021/08/30 09:03:24;;;;;;;37.45;26.73;;;15.40;99.90;;;;;;5001825;28;20062;-74
2021/08/30 09:06:02;;;;;;;38.95;26.73;;;15.40;99.90;;;;;;5001086;28;20080;-75
2021/08/30 09:08:38;;;;;;;38.75;27.10;;;15.40;99.90;;;;;;5002552;28;20056;-74
2021/08/30 09:11:19;;;;;;;37.63;28.73;;;15.40;99.90;;;;;;4984995;28;20057;-74
2021/08/30 09:13:51;;;;;;;39.85;29.15;;;15.50;99.90;;;;;;5018740;28;20080;-74
2021/08/30 09:16:20;;;;;;;37.40;26.77;;;15.50;99.90;;;;;;5001334;28;20502;-74
2021/08/30 09:18:47;;;;;;;33.95;25.05;;;15.50;99.90;;;;;;5001522;28;20077;-75
2021/08/30 09:21:15;;;;;;;35.38;25.63;;;15.60;99.90;;;;;;5002261;28;20045;-74
2021/08/30 09:23:44;;;;;;;33.28;23.83;;;15.60;99.90;;;;;;4985957;28;20053;-74
2021/08/30 09:26:16;;;;;;;33.35;25.05;;;15.70;99.90;;;;;;4984922;28;20041;-74
2021/08/30 09:28:50;;;;;;;36.75;25.27;;;15.70;99.90;;;;;;5008062;28;20052;-74
2021/08/30 09:31:18;;;;;;;36.05;25.98;;;15.70;99.90;;;;;;5015045;28;20058;-74
2021/08/30 09:33:52;;;;;;;34.22;23.60;;;15.90;99.90;;;;;;5017944;28;20549;-74
2021/08/30 09:36:22;;;;;;;27.58;21.83;;;15.90;99.90;;;;;;5005312;28;20437;-76
2021/08/30 09:38:54;;;;;;;30.42;22.25;;;15.80;99.90;;;;;;5005895;28;20132;-74
2021/08/30 09:41:21;;;;;;;28.10;22.17;;;15.90;99.90;;;;;;5036847;28;20042;-75
2021/08/30 09:43:59;;;;;;;30.70;21.80;;;15.80;99.90;;;;;;5008127;28;20091;-74
2021/08/30 09:46:31;;;;;;;29.38;21.33;;;15.80;99.90;;;;;;5004046;28;20064;-75
2021/08/30 09:49:05;;;;;;;33.63;24.60;;;15.90;99.90;;;;;;5006661;28;20096;-75
2021/08/30 09:51:40;;;;;;;28.80;23.30;;;16.00;99.90;;;;;;5021224;28;20100;-73
2021/08/30 09:54:07;;;;;;;28.35;20.63;;;15.90;99.90;;;;;;5005886;28;20050;-73
2021/08/30 09:56:39;;;;;;;28.55;21.10;;;15.90;99.90;;;;;;5004529;28;20054;-75
2021/08/30 09:59:08;;;;;;;30.42;21.52;;;16.00;99.90;;;;;;5013331;28;20529;-74
2021/08/30 10:01:37;;;;;;;29.27;21.00;;;16.00;99.90;;;;;;5011692;28;20195;-75
2021/08/30 10:04:06;;;;;;;26.67;20.92;;;16.00;99.90;;;;;;5004261;28;20050;-75
2021/08/30 10:06:38;;;;;;;27.05;19.80;;;16.00;99.90;;;;;;5001050;28;20042;-75
2021/08/30 10:09:11;;;;;;;27.48;21.52;;;16.00;99.90;;;;;;4985215;28;20030;-75
2021/08/30 10:11:38;;;;;;;29.58;19.50;;;16.00;99.90;;;;;;5006613;28;20526;-75
2021/08/30 10:14:07;;;;;;;29.45;19.73;;;15.90;99.90;;;;;;5022539;28;20054;-75
2021/08/30 10:16:35;;;;;;;26.83;19.63;;;15.80;99.90;;;;;;5019397;28;20038;-75
2021/08/30 10:19:02;;;;;;;28.70;20.90;;;15.80;99.90;;;;;;5004246;28;20101;-75
2021/08/30 10:21:29;;;;;;;26.27;20.23;;;15.80;99.90;;;;;;5004760;28;20050;-75
2021/08/30 10:23:56;;;;;;;27.67;20.88;;;15.80;99.90;;;;;;5006100;28;20063;-74
2021/08/30 10:26:37;;;;;;;28.88;20.05;;;15.70;99.90;;;;;;5005765;28;20529;-75
2021/08/30 10:29:04;;;;;;;25.48;18.95;;;15.70;99.90;;;;;;5011651;28;20121;-75
2021/08/30 10:31:31;;;;;;;29.00;20.08;;;15.70;99.90;;;;;;5020466;28;20053;-72
2021/08/30 10:33:58;;;;;;;21.73;16.95;;;15.80;99.90;;;;;;5003321;28;20255;-73
2021/08/30 10:36:28;;;;;;;23.65;18.30;;;16.00;99.90;;;;;;4988193;28;20495;-75
2021/08/30 10:38:56;;;;;;;22.48;17.15;;;16.10;99.90;;;;;;5004014;28;20054;-75
2021/08/30 10:41:33;;;;;;;21.75;17.85;;;16.40;99.90;;;;;;5002940;28;20248;-75
2021/08/30 10:44:20;;;;;;;24.55;16.77;;;16.50;99.90;;;;;;5001343;28;20109;-74
2021/08/30 10:46:55;;;;;;;25.15;18.73;;;16.40;99.90;;;;;;5006666;28;20042;-75
2021/08/30 10:49:34;;;;;;;22.55;17.63;;;16.50;99.90;;;;;;5004578;28;20046;-75
2021/08/30 10:52:11;;;;;;;25.30;16.17;;;16.70;99.90;;;;;;5004535;28;20038;-75
2021/08/30 10:54:57;;;;;;;26.70;18.25;;;16.60;99.90;;;;;;5000506;28;20062;-75
2021/08/30 10:57:40;;;;;;;19.63;15.65;;;16.70;99.90;;;;;;4985343;28;20058;-75
2021/08/30 11:00:10;;;;;;;21.50;15.80;;;16.60;99.90;;;;;;5007811;28;20070;-75
2021/08/30 11:02:47;;;;;;;17.42;15.25;;;16.70;99.90;;;;;;5007531;28;20037;-75
2021/08/30 11:05:18;;;;;;;20.20;14.38;;;16.50;99.90;;;;;;5002336;28;20604;-74
2021/08/30 11:07:51;;;;;;;18.60;15.23;;;16.40;99.90;;;;;;5003604;28;20053;-75
2021/08/30 11:10:19;;;;;;;18.95;14.85;;;16.30;99.90;;;;;;5029659;28;20054;-74
2021/08/30 11:12:46;;;;;;;22.50;15.88;;;16.30;99.90;;;;;;5005710;28;20046;-75
2021/08/30 11:15:13;;;;;;;20.45;16.50;;;16.30;99.90;;;;;;5003263;28;20134;-75
2021/08/30 11:17:40;;;;;;;19.73;16.00;;;16.40;99.90;;;;;;4987179;28;20057;-75
2021/08/30 11:20:07;;;;;;;23.30;14.35;;;16.50;99.90;;;;;;5004147;28;20187;-74
2021/08/30 11:22:34;;;;;;;20.60;15.40;;;16.50;99.90;;;;;;4985453;28;20816;-75
2021/08/30 11:25:03;;;;;;;21.70;16.15;;;16.60;99.90;;;;;;5005611;28;20050;-75
2021/08/30 11:27:32;;;;;;;23.77;16.05;;;16.70;99.90;;;;;;5001384;28;20469;-74
2021/08/30 11:30:10;;;;;;;21.92;15.25;;;16.80;99.90;;;;;;4998079;28;20049;-75
2021/08/30 11:32:39;;;;;;;20.55;16.42;;;16.90;99.90;;;;;;5019703;28;20046;-75
2021/08/30 11:35:08;;;;;;;20.05;15.82;;;17.00;99.90;;;;;;4999429;28;20041;-75
2021/08/30 11:37:36;;;;;;;19.60;14.90;;;17.10;99.90;;;;;;5003328;28;20519;-75
2021/08/30 11:40:09;;;;;;;19.23;14.20;;;17.10;99.90;;;;;;5002490;28;20096;-74
2021/08/30 11:42:36;;;;;;;18.38;14.15;;;17.20;99.90;;;;;;5027943;28;20053;-74
2021/08/30 11:45:06;;;;;;;18.77;13.85;;;17.10;99.90;;;;;;4985549;28;20042;-75
2021/08/30 11:47:33;;;;;;;20.05;13.10;;;17.10;99.90;;;;;;4996192;28;20054;-75
2021/08/30 11:50:02;;;;;;;14.85;13.00;;;17.00;99.90;;;;;;5002739;28;20050;-74
2021/08/30 11:52:31;;;;;;;19.88;13.82;;;17.10;99.90;;;;;;5013570;28;20403;-74
2021/08/30 11:55:08;;;;;;;15.65;13.35;;;17.30;99.90;;;;;;4984031;28;20049;-74
2021/08/30 11:57:45;;;;;;;18.83;14.65;;;17.30;99.90;;;;;;5001780;28;20630;-74
2021/08/30 12:00:22;;;;;;;19.80;14.65;;;17.40;99.90;;;;;;5038772;28;20060;-74
2021/08/30 12:02:51;;;;;;;17.02;13.63;;;17.60;99.90;;;;;;4988697;28;20380;-75
2021/08/30 12:05:18;;;;;;;17.02;14.10;;;17.60;99.90;;;;;;5001577;28;20062;-75
2021/08/30 12:07:45;;;;;;;17.73;14.43;;;17.50;99.90;;;;;;5002418;28;20092;-73
2021/08/30 12:10:13;;;;;;;17.67;13.60;;;17.60;99.90;;;;;;4986162;28;20108;-74
2021/08/30 12:12:53;;;;;;;15.80;13.65;;;17.60;99.90;;;;;;4971251;28;20034;-73
2021/08/30 12:15:26;;;;;;;17.35;13.80;;;17.60;99.90;;;;;;5036095;28;20049;-74
2021/08/30 12:17:55;;;;;;;19.38;14.15;;;17.50;99.90;;;;;;4987302;28;20061;-75
2021/08/30 12:20:38;;;;;;;14.88;13.27;;;17.40;99.90;;;;;;5001600;28;20677;-74
2021/08/30 12:23:07;;;;;;;16.23;13.82;;;17.50;99.90;;;;;;5001575;28;20072;-74
2021/08/30 12:25:44;;;;;;;16.40;13.88;;;17.60;99.90;;;;;;5002626;28;20324;-74
2021/08/30 12:28:14;;;;;;;16.25;13.82;;;17.60;99.90;;;;;;5005098;28;20047;-75
2021/08/30 12:30:43;;;;;;;18.52;13.68;;;17.70;99.90;;;;;;5011717;28;20048;-74
2021/08/30 12:33:20;;;;;;;14.30;12.65;;;17.60;99.90;;;;;;5003781;28;20050;-74
2021/08/30 12:35:47;;;;;;;15.95;13.70;;;17.60;99.90;;;;;;5002706;28;20406;-74
2021/08/30 12:38:22;;;;;;;14.75;12.85;;;17.70;99.90;;;;;;5003296;28;20153;-74
2021/08/30 12:40:51;;;;;;;14.68;12.93;;;17.80;99.90;;;;;;5001987;28;20449;-74